Time;durP1;ratioP1;P1;durP2;ratioP2;P2;SDS_P1;SDS_P2;PMS_P1;PMS_P2;Temp;Humidity;BMP_temperature;BMP_pressure;BME280_temperature;BME280_humidity;BME280_pressure;Samples;Min_cycle;Max_cycle;Signal;HPM_P1;HPM_P2
2021/06/23 00:01:32;;;;;;;3.92;1.73;;;23.20;76.70;;;;;;5027206;28;20434;-73
2021/06/23 00:03:57;;;;;;;5.43;2.20;;;23.20;76.70;;;;;;5013307;28;20029;-73
2021/06/23 00:06:23;;;;;;;3.47;1.42;;;23.30;76.60;;;;;;5014717;28;20057;-73
2021/06/23 00:08:49;;;;;;;4.88;1.92;;;23.20;76.70;;;;;;5030404;28;20519;-73
2021/06/23 00:11:14;;;;;;;6.50;2.00;;;23.10;77.00;;;;;;5030772;28;20029;-73
2021/06/23 00:13:41;;;;;;;7.32;1.58;;;23.00;77.70;;;;;;5032378;28;20488;-74
2021/06/23 00:16:08;;;;;;;4.35;1.70;;;23.00;77.60;;;;;;5032368;28;20025;-73
2021/06/23 00:18:34;;;;;;;6.72;1.60;;;23.00;77.50;;;;;;5031415;28;20033;-73
2021/06/23 00:20:59;;;;;;;6.90;2.42;;;23.10;77.00;;;;;;5032433;28;20112;-74
2021/06/23 00:23:25;;;;;;;9.10;2.25;;;23.10;77.10;;;;;;5032792;28;20404;-73
2021/06/23 00:25:51;;;;;;;7.28;1.90;;;23.00;77.50;;;;;;5032386;28;20590;-73
2021/06/23 00:28:17;;;;;;;4.20;1.80;;;22.90;77.40;;;;;;5032278;28;20060;-73
2021/06/23 00:30:43;;;;;;;5.25;2.20;;;22.70;78.00;;;;;;5031269;28;20064;-73
2021/06/23 00:33:15;;;;;;;6.82;1.92;;;22.90;77.60;;;;;;5025987;28;20030;-73
2021/06/23 00:35:42;;;;;;;5.18;1.50;;;22.80;78.40;;;;;;5030514;28;20072;-73
2021/06/23 00:38:08;;;;;;;6.00;2.33;;;22.60;78.30;;;;;;5030157;28;20021;-73
2021/06/23 00:40:35;;;;;;;9.90;2.47;;;22.50;78.40;;;;;;5025296;28;20035;-73
2021/06/23 00:43:02;;;;;;;9.18;2.58;;;22.40;78.60;;;;;;5029021;28;20082;-73
2021/06/23 00:45:29;;;;;;;6.75;2.05;;;22.40;79.00;;;;;;5029769;28;20061;-73
2021/06/23 00:47:56;;;;;;;6.68;2.15;;;22.50;79.10;;;;;;5030048;28;20095;-73
2021/06/23 00:50:23;;;;;;;4.85;1.90;;;22.40;79.40;;;;;;5030488;28;20033;-75
2021/06/23 00:52:52;;;;;;;5.75;2.30;;;22.30;79.50;;;;;;5031248;28;20056;-73
2021/06/23 00:55:22;;;;;;;4.97;2.00;;;22.30;79.70;;;;;;5026578;28;20030;-73
2021/06/23 00:57:53;;;;;;;6.03;2.25;;;22.30;79.70;;;;;;5019089;28;20075;-73
2021/06/23 01:00:37;;;;;;;10.10;2.30;;;22.40;79.70;;;;;;5030334;28;20033;-73
2021/06/23 01:03:07;;;;;;;8.68;2.10;;;22.40;79.50;;;;;;5029737;28;20029;-73
2021/06/23 01:05:33;;;;;;;4.47;2.05;;;22.50;79.60;;;;;;5029613;28;20503;-74
2021/06/23 01:07:59;;;;;;;5.20;2.38;;;22.50;79.70;;;;;;5029803;28;20072;-75
2021/06/23 01:10:30;;;;;;;6.90;2.25;;;22.40;79.80;;;;;;5029411;28;20064;-73
2021/06/23 01:13:16;;;;;;;7.43;1.77;;;22.40;79.80;;;;;;5029509;28;20075;-73
2021/06/23 01:15:44;;;;;;;7.07;2.28;;;22.30;80.10;;;;;;5018100;28;20384;-74
2021/06/23 01:18:10;;;;;;;5.20;1.98;;;22.20;80.40;;;;;;5025551;28;20025;-74
2021/06/23 01:20:44;;;;;;;4.80;1.98;;;22.10;80.70;;;;;;5032024;28;20376;-74
2021/06/23 01:23:11;;;;;;;5.38;2.45;;;22.00;80.70;;;;;;5031628;28;20429;-74
2021/06/23 01:25:36;;;;;;;6.15;2.08;;;22.00;81.00;;;;;;5030864;28;20018;-75
2021/06/23 01:28:02;;;;;;;6.07;2.08;;;21.90;81.10;;;;;;5031634;28;20383;-73
2021/06/23 01:30:28;;;;;;;9.68;2.10;;;21.90;81.10;;;;;;5030889;28;20068;-72
2021/06/23 01:32:54;;;;;;;5.60;2.13;;;21.90;81.10;;;;;;5027636;28;20514;-73
2021/06/23 01:35:20;;;;;;;8.07;2.30;;;21.90;81.30;;;;;;5030660;28;20045;-73
2021/06/23 01:37:46;;;;;;;10.13;3.17;;;21.90;81.40;;;;;;5031728;28;20521;-73
2021/06/23 01:40:13;;;;;;;7.10;1.98;;;21.90;81.50;;;;;;5031422;28;20037;-73
2021/06/23 01:42:38;;;;;;;7.97;2.47;;;21.70;81.70;;;;;;5031469;28;20368;-73
2021/06/23 01:45:05;;;;;;;8.15;2.47;;;21.70;81.90;;;;;;5028458;28;20036;-73
2021/06/23 01:47:31;;;;;;;3.90;1.88;;;21.70;82.10;;;;;;5030814;28;20027;-73
2021/06/23 01:49:58;;;;;;;7.07;2.33;;;21.70;82.10;;;;;;5030495;28;20033;-73
2021/06/23 01:52:24;;;;;;;6.40;2.40;;;21.70;82.40;;;;;;5035362;28;20073;-74
2021/06/23 01:54:52;;;;;;;6.28;2.00;;;21.70;82.50;;;;;;5035278;28;20122;-74
2021/06/23 01:57:18;;;;;;;8.80;2.95;;;21.70;82.70;;;;;;5021025;28;20068;-73
2021/06/23 01:59:45;;;;;;;6.80;2.55;;;21.70;82.40;;;;;;5026617;28;20495;-73
2021/06/23 02:02:26;;;;;;;5.40;2.13;;;21.90;81.80;;;;;;5033351;28;20067;-73
2021/06/23 02:05:04;;;;;;;6.13;2.65;;;22.20;80.90;;;;;;5032905;28;20037;-73
2021/06/23 02:07:45;;;;;;;6.55;2.17;;;22.30;80.50;;;;;;5033336;28;20542;-72
2021/06/23 02:10:38;;;;;;;7.43;2.40;;;22.20;81.10;;;;;;5031923;28;20025;-73
2021/06/23 02:13:28;;;;;;;5.50;1.90;;;22.30;80.60;;;;;;5032842;28;20033;-73
2021/06/23 02:15:56;;;;;;;6.03;2.10;;;22.30;81.20;;;;;;5032920;28;20045;-73
2021/06/23 02:18:26;;;;;;;8.52;1.92;;;22.00;81.70;;;;;;5034564;28;20045;-73
2021/06/23 02:20:54;;;;;;;6.57;2.15;;;22.00;82.00;;;;;;5034102;28;20103;-73
2021/06/23 02:23:21;;;;;;;8.55;2.25;;;22.20;81.40;;;;;;5034589;28;20045;-73
2021/06/23 02:25:47;;;;;;;6.72;2.08;;;22.00;81.80;;;;;;5034523;28;20030;-73
2021/06/23 02:28:13;;;;;;;6.10;2.47;;;21.90;82.10;;;;;;5034856;28;20037;-73
2021/06/23 02:30:39;;;;;;;7.38;2.30;;;21.80;82.50;;;;;;5033815;28;20499;-74
2021/06/23 02:33:08;;;;;;;8.90;2.20;;;21.70;82.90;;;;;;5034048;28;20100;-74
2021/06/23 02:35:36;;;;;;;8.32;2.30;;;21.60;83.30;;;;;;5034494;28;20063;-73
2021/06/23 02:38:02;;;;;;;9.90;2.33;;;21.70;82.70;;;;;;5034869;28;20038;-73
2021/06/23 02:40:28;;;;;;;5.57;1.67;;;21.80;82.50;;;;;;5033863;28;20412;-73
2021/06/23 02:42:55;;;;;;;7.82;2.30;;;21.80;82.60;;;;;;5034458;28;20030;-74
2021/06/23 02:45:25;;;;;;;8.00;2.97;;;21.70;82.70;;;;;;5034082;28;20565;-73
2021/06/23 02:47:52;;;;;;;5.40;2.30;;;21.60;82.90;;;;;;5034649;28;20029;-74
2021/06/23 02:50:18;;;;;;;7.07;1.98;;;21.70;82.80;;;;;;5033580;28;20380;-73
2021/06/23 02:52:44;;;;;;;7.30;1.65;;;21.70;82.70;;;;;;5033994;28;20085;-73
2021/06/23 02:55:10;;;;;;;7.78;2.50;;;21.60;82.80;;;;;;5030405;28;20025;-73
2021/06/23 02:57:36;;;;;;;10.32;2.72;;;21.40;83.90;;;;;;5024387;28;20022;-73
2021/06/23 03:00:06;;;;;;;8.48;2.45;;;21.30;84.40;;;;;;5027191;28;20041;-73
2021/06/23 03:02:32;;;;;;;7.70;2.35;;;21.30;84.50;;;;;;5028465;28;20033;-74
2021/06/23 03:04:58;;;;;;;7.60;2.63;;;21.30;84.20;;;;;;5017926;28;20938;-74
2021/06/23 03:07:24;;;;;;;6.65;2.38;;;21.50;84.10;;;;;;5024745;28;20030;-74
2021/06/23 03:09:49;;;;;;;7.75;2.58;;;21.50;83.20;;;;;;5039795;28;20021;-73
2021/06/23 03:12:16;;;;;;;8.10;2.10;;;21.50;83.60;;;;;;5024395;28;20087;-74
2021/06/23 03:14:42;;;;;;;10.90;2.15;;;21.30;84.30;;;;;;5024596;28;20038;-73
2021/06/23 03:17:08;;;;;;;6.97;2.17;;;21.30;84.50;;;;;;5025883;28;20492;-73
2021/06/23 03:19:35;;;;;;;10.88;2.90;;;21.30;84.70;;;;;;5026422;28;20045;-74
2021/06/23 03:22:06;;;;;;;7.57;2.45;;;21.30;84.90;;;;;;5026171;28;20087;-73
2021/06/23 03:24:32;;;;;;;6.85;2.10;;;21.30;84.30;;;;;;5025795;28;20283;-73
2021/06/23 03:26:57;;;;;;;7.45;2.28;;;21.20;84.50;;;;;;5026712;28;20475;-74
2021/06/23 03:29:23;;;;;;;5.82;2.25;;;21.10;84.70;;;;;;5026022;28;20029;-73
2021/06/23 03:31:49;;;;;;;5.72;2.20;;;21.20;84.00;;;;;;5025745;28;20036;-74
2021/06/23 03:34:15;;;;;;;5.80;2.03;;;21.40;83.90;;;;;;5025365;28;20032;-73
2021/06/23 03:36:41;;;;;;;4.65;1.90;;;21.30;84.10;;;;;;5026358;28;20068;-73
2021/06/23 03:39:07;;;;;;;7.85;2.63;;;21.30;84.20;;;;;;5025108;28;20133;-73
2021/06/23 03:41:33;;;;;;;6.28;2.38;;;21.30;83.90;;;;;;5025100;28;20109;-74
2021/06/23 03:43:58;;;;;;;7.20;2.10;;;21.40;84.00;;;;;;5026197;28;20136;-73
2021/06/23 03:46:24;;;;;;;3.75;1.95;;;21.30;84.40;;;;;;5024996;28;20038;-73
2021/06/23 03:48:50;;;;;;;7.70;2.50;;;21.40;83.40;;;;;;5026619;28;20633;-73
2021/06/23 03:51:16;;;;;;;7.25;2.25;;;21.40;84.20;;;;;;5025183;28;20068;-74
2021/06/23 03:53:42;;;;;;;4.80;2.08;;;21.30;84.60;;;;;;5024210;28;20098;-74
2021/06/23 03:56:08;;;;;;;7.55;2.15;;;21.30;83.90;;;;;;5023387;28;20048;-73
2021/06/23 03:58:34;;;;;;;7.55;2.60;;;21.30;83.90;;;;;;5014702;28;20075;-75
2021/06/23 04:00:59;;;;;;;7.30;2.13;;;21.40;84.30;;;;;;5021605;28;20026;-74
2021/06/23 04:03:25;;;;;;;7.20;2.25;;;21.20;84.70;;;;;;5023727;28;20128;-74
2021/06/23 04:05:51;;;;;;;7.13;2.65;;;20.90;86.20;;;;;;5023715;28;20087;-73
2021/06/23 04:08:17;;;;;;;5.68;2.85;;;20.70;86.70;;;;;;5024949;28;20025;-75
2021/06/23 04:10:43;;;;;;;4.28;1.40;;;20.80;85.80;;;;;;5024133;28;20033;-73
2021/06/23 04:13:08;;;;;;;5.60;1.80;;;20.90;86.70;;;;;;5024909;28;20041;-73
2021/06/23 04:15:34;;;;;;;5.57;2.60;;;21.10;86.60;;;;;;5024403;28;20029;-74
2021/06/23 04:18:00;;;;;;;10.77;2.72;;;21.10;86.20;;;;;;5025446;28;20498;-73
2021/06/23 04:20:25;;;;;;;5.63;1.70;;;21.10;86.10;;;;;;5025087;28;20220;-75
2021/06/23 04:22:51;;;;;;;6.15;2.20;;;21.10;86.90;;;;;;5025733;28;20076;-73
2021/06/23 04:25:17;;;;;;;8.05;2.45;;;20.90;86.90;;;;;;5023993;28;20108;-74
2021/06/23 04:27:44;;;;;;;4.97;2.10;;;20.90;87.00;;;;;;5025764;28;20371;-73
2021/06/23 04:30:11;;;;;;;5.95;1.83;;;21.10;86.60;;;;;;5024638;28;20519;-73
2021/06/23 04:32:37;;;;;;;5.18;2.08;;;21.20;86.80;;;;;;5020376;28;20033;-73
2021/06/23 04:35:06;;;;;;;7.65;2.47;;;21.10;87.30;;;;;;5020804;28;20045;-74
2021/06/23 04:37:33;;;;;;;5.85;2.03;;;20.80;87.50;;;;;;5025231;28;20029;-73
2021/06/23 04:39:58;;;;;;;6.70;2.03;;;21.10;86.50;;;;;;5024547;28;20041;-74
2021/06/23 04:42:24;;;;;;;9.98;2.65;;;21.20;86.80;;;;;;5024877;28;20155;-74
2021/06/23 04:44:50;;;;;;;4.57;2.22;;;21.40;85.20;;;;;;5024523;28;20033;-73
2021/06/23 04:47:16;;;;;;;7.95;2.15;;;21.40;86.20;;;;;;5024191;28;20132;-73
2021/06/23 04:49:41;;;;;;;7.70;2.25;;;21.40;85.70;;;;;;5025179;28;21160;-74
2021/06/23 04:52:07;;;;;;;6.75;2.00;;;21.50;85.00;;;;;;5024840;28;20030;-73
2021/06/23 04:54:33;;;;;;;6.30;2.20;;;21.60;84.90;;;;;;5024078;28;20040;-73
2021/06/23 04:56:58;;;;;;;4.95;2.42;;;21.60;85.50;;;;;;5024252;28;20700;-73
2021/06/23 04:59:24;;;;;;;6.32;2.30;;;21.50;86.40;;;;;;5014955;28;20168;-73
2021/06/23 05:01:50;;;;;;;8.05;2.30;;;21.60;86.60;;;;;;5024318;28;20036;-73
2021/06/23 05:04:15;;;;;;;6.57;2.25;;;21.50;86.50;;;;;;5017911;28;20088;-74
2021/06/23 05:06:41;;;;;;;5.55;2.05;;;21.70;87.90;;;;;;5016696;28;20035;-74
2021/06/23 05:09:07;;;;;;;11.35;3.20;;;21.70;86.30;;;;;;5022463;28;20045;-73
2021/06/23 05:11:33;;;;;;;7.90;2.40;;;21.60;85.40;;;;;;5022937;28;20030;-73
2021/06/23 05:14:05;;;;;;;23.25;2.92;;;21.70;85.30;;;;;;5022789;28;20057;-73
2021/06/23 05:16:32;;;;;;;11.15;2.85;;;21.80;86.40;;;;;;5022451;28;20037;-73
2021/06/23 05:18:58;;;;;;;11.88;2.83;;;21.90;86.60;;;;;;5023781;28;20041;-73
2021/06/23 05:21:24;;;;;;;6.53;2.47;;;22.00;87.60;;;;;;5024625;28;20071;-73
2021/06/23 05:23:50;;;;;;;9.75;2.97;;;21.90;88.00;;;;;;5024106;28;20131;-73
2021/06/23 05:26:16;;;;;;;8.48;2.72;;;21.80;87.80;;;;;;5024218;28;20547;-74
2021/06/23 05:28:42;;;;;;;6.70;2.25;;;21.70;88.30;;;;;;5029361;28;20543;-75
2021/06/23 05:31:07;;;;;;;6.85;2.55;;;21.90;88.50;;;;;;5024331;28;20573;-71
2021/06/23 05:33:33;;;;;;;14.15;3.00;;;21.90;89.70;;;;;;5021790;28;20037;-72
2021/06/23 05:35:59;;;;;;;7.00;2.60;;;21.60;89.90;;;;;;5027304;28;20140;-72
2021/06/23 05:38:24;;;;;;;5.47;2.50;;;21.70;88.10;;;;;;5024313;28;20025;-72
2021/06/23 05:40:50;;;;;;;10.38;2.45;;;21.90;89.60;;;;;;5024034;28;20028;-74
2021/06/23 05:43:16;;;;;;;7.47;2.75;;;22.10;88.50;;;;;;5024190;28;20379;-73
2021/06/23 05:45:42;;;;;;;15.00;2.78;;;22.20;89.60;;;;;;5024128;28;20499;-73
2021/06/23 05:48:08;;;;;;;21.33;3.72;;;22.30;90.80;;;;;;5024344;28;20129;-73
2021/06/23 05:50:34;;;;;;;4.80;2.60;;;22.30;90.40;;;;;;5024292;28;20067;-74
2021/06/23 05:53:00;;;;;;;8.25;2.60;;;22.40;88.30;;;;;;5003651;28;20041;-74
2021/06/23 05:55:26;;;;;;;6.85;2.08;;;22.40;86.30;;;;;;5004110;28;20014;-74
2021/06/23 05:57:53;;;;;;;12.98;3.20;;;22.50;87.80;;;;;;5004059;28;20065;-74
2021/06/23 06:00:21;;;;;;;7.38;2.70;;;22.60;88.10;;;;;;5003243;28;20443;-74
2021/06/23 06:02:47;;;;;;;5.78;2.42;;;22.60;89.30;;;;;;5018531;28;20029;-74
2021/06/23 06:05:14;;;;;;;9.43;2.33;;;22.70;88.60;;;;;;5022066;28;21047;-73
2021/06/23 06:07:39;;;;;;;7.72;2.75;;;22.70;88.40;;;;;;5023284;28;20021;-73
2021/06/23 06:10:06;;;;;;;5.55;2.63;;;22.70;88.20;;;;;;5023583;28;20480;-74
2021/06/23 06:12:31;;;;;;;9.27;2.95;;;22.60;86.50;;;;;;5022999;28;20049;-74
2021/06/23 06:14:57;;;;;;;14.30;3.38;;;22.70;87.80;;;;;;5022059;28;20025;-74
2021/06/23 06:17:23;;;;;;;12.30;2.75;;;22.70;87.50;;;;;;5023543;28;20026;-74
2021/06/23 06:19:48;;;;;;;9.32;2.78;;;22.70;88.30;;;;;;5023479;28;20037;-73
2021/06/23 06:22:14;;;;;;;5.40;2.30;;;22.80;88.00;;;;;;5022689;28;20387;-73
2021/06/23 06:24:40;;;;;;;6.40;2.50;;;22.90;88.20;;;;;;5022522;28;20024;-74
2021/06/23 06:27:06;;;;;;;6.32;2.40;;;22.90;86.90;;;;;;5022271;28;20104;-73
2021/06/23 06:29:31;;;;;;;7.82;2.40;;;22.90;85.90;;;;;;5023150;28;20115;-73
2021/06/23 06:31:57;;;;;;;14.30;3.10;;;22.90;87.40;;;;;;5022420;28;20621;-73
2021/06/23 06:34:23;;;;;;;7.85;2.40;;;22.90;86.20;;;;;;5022211;28;20040;-73
2021/06/23 06:36:48;;;;;;;7.72;2.85;;;23.00;86.80;;;;;;5024342;28;20021;-73
2021/06/23 06:39:14;;;;;;;8.38;3.42;;;23.00;86.40;;;;;;5026657;28;20144;-73
2021/06/23 06:41:40;;;;;;;6.35;2.72;;;23.00;86.90;;;;;;5026395;28;20033;-73
2021/06/23 06:44:06;;;;;;;7.10;2.60;;;23.10;85.20;;;;;;5026876;28;20499;-73
2021/06/23 06:46:32;;;;;;;8.07;3.13;;;23.10;85.10;;;;;;5026786;28;20029;-74
2021/06/23 06:48:58;;;;;;;8.95;3.03;;;23.30;86.00;;;;;;5027459;28;20525;-74
2021/06/23 06:51:23;;;;;;;5.97;2.58;;;23.30;84.60;;;;;;5026971;28;20048;-74
2021/06/23 06:53:49;;;;;;;7.97;2.60;;;23.30;84.20;;;;;;5026070;28;20081;-73
2021/06/23 06:56:16;;;;;;;4.70;2.65;;;23.50;83.50;;;;;;5011960;28;20045;-73
2021/06/23 06:58:42;;;;;;;6.28;2.83;;;23.50;84.10;;;;;;5014563;28;20029;-73
2021/06/23 07:01:07;;;;;;;5.07;2.50;;;23.50;83.70;;;;;;5005243;28;20037;-74
2021/06/23 07:03:33;;;;;;;6.22;2.72;;;23.70;83.20;;;;;;5016306;28;20061;-73
2021/06/23 07:05:59;;;;;;;6.80;2.30;;;23.70;83.00;;;;;;5024809;28;20532;-74
2021/06/23 07:08:24;;;;;;;9.25;3.00;;;23.90;82.90;;;;;;5025155;28;20049;-73
2021/06/23 07:10:50;;;;;;;6.20;2.67;;;24.20;83.40;;;;;;5025472;28;20025;-74
2021/06/23 07:13:16;;;;;;;8.95;2.83;;;24.60;83.80;;;;;;5024722;28;20568;-73
2021/06/23 07:15:41;;;;;;;8.80;3.95;;;25.00;83.00;;;;;;5024960;28;20036;-73
2021/06/23 07:18:08;;;;;;;8.02;2.97;;;25.00;82.30;;;;;;5024284;28;20037;-73
2021/06/23 07:20:33;;;;;;;9.25;2.63;;;25.40;81.70;;;;;;5025658;28;20043;-73
2021/06/23 07:22:59;;;;;;;6.47;2.75;;;25.60;80.40;;;;;;5026798;28;20022;-74
2021/06/23 07:25:25;;;;;;;6.03;2.05;;;25.60;79.90;;;;;;5026090;28;20025;-74
2021/06/23 07:27:51;;;;;;;11.10;2.92;;;25.70;78.80;;;;;;5026835;28;20096;-74
2021/06/23 07:30:17;;;;;;;9.65;2.58;;;25.90;79.90;;;;;;5025734;28;20607;-74
2021/06/23 07:32:55;;;;;;;10.05;3.00;;;26.20;79.10;;;;;;5025478;28;20510;-74
2021/06/23 07:38:13;;;;;;;10.43;2.72;;;27.50;76.40;;;;;;5026103;28;20102;-74
2021/06/23 07:43:11;;;;;;;11.77;2.72;;;28.30;75.80;;;;;;5025827;28;20037;-74
2021/06/23 07:45:42;;;;;;;14.23;3.42;;;28.80;77.00;;;;;;5025164;28;20029;-74
2021/06/23 07:48:08;;;;;;;12.60;3.35;;;28.90;76.40;;;;;;5024697;28;20018;-74
2021/06/23 07:50:40;;;;;;;15.60;3.25;;;28.30;76.20;;;;;;5026034;28;20021;-75
2021/06/23 07:53:22;;;;;;;14.63;3.47;;;28.30;76.60;;;;;;5025770;28;20599;-74
2021/06/23 07:55:51;;;;;;;7.10;2.30;;;27.90;77.50;;;;;;5025853;28;20017;-74
2021/06/23 08:12:16;;;;;;;23.13;3.63;;;28.30;76.10;;;;;;5039473;28;20120;-74
2021/06/23 08:14:42;;;;;;;7.97;2.58;;;28.30;75.80;;;;;;5025801;28;20021;-74
2021/06/23 08:17:08;;;;;;;5.47;2.03;;;28.00;76.10;;;;;;5025630;28;20423;-75
2021/06/23 08:19:34;;;;;;;16.30;3.17;;;27.90;75.70;;;;;;5024892;28;20036;-74
2021/06/23 08:22:00;;;;;;;9.18;2.85;;;28.10;75.70;;;;;;5025687;28;20046;-74
2021/06/23 08:24:26;;;;;;;9.95;3.30;;;27.90;75.70;;;;;;5025057;28;20577;-74
2021/06/23 08:26:52;;;;;;;7.90;2.45;;;28.30;75.20;;;;;;5025524;28;20029;-74
2021/06/23 08:29:17;;;;;;;7.00;2.65;;;28.40;75.80;;;;;;5025159;28;20037;-74
2021/06/23 08:31:43;;;;;;;7.85;2.83;;;28.40;76.80;;;;;;5025213;28;20032;-74
2021/06/23 08:34:09;;;;;;;8.30;2.70;;;28.40;75.70;;;;;;5024369;28;20041;-74
2021/06/23 08:36:35;;;;;;;8.80;3.25;;;27.80;76.30;;;;;;5025079;28;20435;-74
2021/06/23 08:39:00;;;;;;;11.50;3.08;;;28.00;75.80;;;;;;5023842;28;20041;-74
2021/06/23 08:41:26;;;;;;;13.38;3.50;;;28.10;76.30;;;;;;5025358;28;20103;-74
2021/06/23 08:43:57;;;;;;;9.88;2.40;;;28.10;75.40;;;;;;5024174;28;20033;-74
2021/06/23 08:46:24;;;;;;;7.82;2.38;;;28.10;76.30;;;;;;5024587;28;20025;-74
2021/06/23 08:48:49;;;;;;;7.97;3.03;;;28.50;75.40;;;;;;5024848;28;20017;-74
2021/06/23 08:51:16;;;;;;;12.85;2.70;;;28.60;75.20;;;;;;5024721;28;20036;-74
2021/06/23 08:53:42;;;;;;;6.80;2.88;;;28.60;74.80;;;;;;5023421;28;20657;-74
2021/06/23 08:56:08;;;;;;;11.73;3.10;;;28.40;77.70;;;;;;5025059;28;20688;-75
2021/06/23 08:58:34;;;;;;;8.57;3.17;;;28.90;76.60;;;;;;5025080;28;20171;-74
2021/06/23 09:01:01;;;;;;;11.40;3.13;;;28.90;76.80;;;;;;5023939;28;20037;-74
2021/06/23 09:03:27;;;;;;;14.18;2.95;;;29.00;76.20;;;;;;5021931;28;20038;-74
2021/06/23 09:05:57;;;;;;;7.97;2.58;;;28.40;76.80;;;;;;5023851;28;20265;-74
2021/06/23 09:08:30;;;;;;;11.60;3.45;;;28.60;76.10;;;;;;5022877;28;20065;-74
2021/06/23 09:10:57;;;;;;;11.27;2.83;;;28.90;75.70;;;;;;5019741;28;20491;-74
2021/06/23 09:13:23;;;;;;;11.00;2.60;;;29.20;75.20;;;;;;5003224;28;20384;-74
2021/06/23 09:15:58;;;;;;;11.20;2.97;;;28.70;74.80;;;;;;5003427;28;20030;-74
2021/06/23 09:18:42;;;;;;;8.38;3.33;;;29.00;77.30;;;;;;5001715;28;20498;-74
2021/06/23 09:21:13;;;;;;;7.32;2.72;;;29.50;74.90;;;;;;5004374;28;20042;-74
2021/06/23 09:23:48;;;;;;;11.05;3.15;;;29.60;75.20;;;;;;5024305;28;20029;-74
2021/06/23 09:26:26;;;;;;;9.27;2.60;;;29.70;75.40;;;;;;5024793;28;20079;-74
2021/06/23 09:29:09;;;;;;;8.75;3.10;;;30.00;75.50;;;;;;5024312;28;20103;-74
2021/06/23 09:31:54;;;;;;;9.13;3.03;;;29.80;74.90;;;;;;5024046;28;20053;-74
2021/06/23 09:34:35;;;;;;;6.65;2.60;;;29.90;74.70;;;;;;5012171;28;20026;-75
2021/06/23 09:37:22;;;;;;;5.65;2.50;;;30.00;74.50;;;;;;5004546;28;20073;-74
2021/06/23 09:39:47;;;;;;;8.50;2.72;;;30.10;74.50;;;;;;5003182;28;20045;-75
2021/06/23 09:42:34;;;;;;;8.05;2.83;;;30.20;74.50;;;;;;5006684;28;20050;-74
2021/06/23 09:45:08;;;;;;;9.55;2.47;;;30.00;75.70;;;;;;5024143;28;20024;-74
2021/06/23 09:47:36;;;;;;;18.58;2.97;;;30.10;75.20;;;;;;5024746;28;20029;-74
2021/06/23 09:50:09;;;;;;;5.53;2.33;;;30.30;74.60;;;;;;5024055;28;20018;-74
2021/06/23 09:52:38;;;;;;;9.52;2.40;;;30.50;75.20;;;;;;5020403;28;20506;-74
2021/06/23 09:55:04;;;;;;;11.77;3.03;;;30.80;74.60;;;;;;5004197;28;20500;-75
2021/06/23 09:57:30;;;;;;;8.55;2.95;;;30.60;73.90;;;;;;5023245;28;20025;-74
2021/06/23 10:00:09;;;;;;;10.55;3.20;;;30.50;74.10;;;;;;5024380;28;20044;-74
2021/06/23 10:02:35;;;;;;;9.52;2.83;;;30.80;74.30;;;;;;5004561;28;20056;-75
2021/06/23 10:05:24;;;;;;;9.95;2.33;;;30.90;74.20;;;;;;5001577;28;20111;-74
2021/06/23 10:07:51;;;;;;;17.13;3.10;;;30.90;74.00;;;;;;5006510;28;20042;-74
2021/06/23 10:10:20;;;;;;;12.32;3.17;;;31.00;74.20;;;;;;5003177;28;20022;-74
2021/06/23 10:12:52;;;;;;;9.48;2.90;;;31.30;74.60;;;;;;5026759;28;20026;-74
2021/06/23 10:15:18;;;;;;;9.40;3.08;;;31.90;73.30;;;;;;5027891;28;20025;-75
2021/06/23 10:17:45;;;;;;;10.13;2.97;;;31.60;73.50;;;;;;5027004;28;20025;-74
2021/06/23 10:20:13;;;;;;;11.40;2.38;;;31.40;74.30;;;;;;5027227;28;20194;-75
2021/06/23 10:22:42;;;;;;;11.68;2.78;;;31.50;73.80;;;;;;5027367;28;20037;-74
2021/06/23 10:25:13;;;;;;;8.75;2.33;;;31.80;74.40;;;;;;5027548;28;20033;-75
2021/06/23 10:27:45;;;;;;;9.20;2.50;;;31.80;75.20;;;;;;5027618;28;20033;-74
2021/06/23 10:30:12;;;;;;;18.80;3.58;;;31.90;73.90;;;;;;5027356;28;20389;-74
2021/06/23 10:32:40;;;;;;;17.08;3.55;;;31.80;73.20;;;;;;5020740;28;20034;-75
2021/06/23 10:35:07;;;;;;;16.75;3.38;;;31.50;73.00;;;;;;5007138;28;20455;-74
2021/06/23 10:37:36;;;;;;;11.95;3.30;;;31.50;72.40;;;;;;5007745;28;20025;-75
2021/06/23 10:40:05;;;;;;;12.82;3.05;;;32.00;72.30;;;;;;5006359;28;20474;-75
2021/06/23 10:42:32;;;;;;;10.75;2.50;;;31.70;71.30;;;;;;5015155;28;20043;-75
2021/06/23 10:44:57;;;;;;;9.38;2.90;;;31.50;72.80;;;;;;5027079;28;20033;-74
2021/06/23 10:47:31;;;;;;;14.48;3.47;;;31.00;73.10;;;;;;5027117;28;20499;-74
2021/06/23 10:49:57;;;;;;;12.45;2.85;;;30.60;73.70;;;;;;5027479;28;20166;-74
2021/06/23 10:52:24;;;;;;;9.63;2.53;;;30.50;74.20;;;;;;5026714;28;20030;-74
2021/06/23 10:55:21;;;;;;;14.52;4.25;;;31.40;73.10;;;;;;5027049;28;20025;-74
2021/06/23 10:57:52;;;;;;;9.82;2.40;;;31.80;71.60;;;;;;5026940;28;20376;-74
2021/06/23 11:00:18;;;;;;;6.50;2.60;;;31.10;70.60;;;;;;5026841;28;20060;-75
2021/06/23 11:02:48;;;;;;;10.30;2.80;;;30.80;70.80;;;;;;5012424;28;20589;-74
2021/06/23 11:05:19;;;;;;;9.80;2.50;;;30.80;69.90;;;;;;5010356;28;20040;-74
2021/06/23 11:07:46;;;;;;;10.57;2.40;;;31.00;71.10;;;;;;5017844;28;20104;-74
2021/06/23 11:10:17;;;;;;;7.07;2.85;;;31.70;69.00;;;;;;5025310;28;20072;-75
2021/06/23 11:12:43;;;;;;;11.10;2.90;;;31.70;70.00;;;;;;5025779;28;20510;-75
2021/06/23 11:15:25;;;;;;;10.77;2.60;;;31.70;69.40;;;;;;5024569;28;20076;-74
2021/06/23 11:17:53;;;;;;;15.35;2.67;;;32.00;69.70;;;;;;5025030;28;20067;-74
2021/06/23 11:20:19;;;;;;;7.85;2.55;;;31.90;70.00;;;;;;5024768;28;20039;-73
2021/06/23 11:22:45;;;;;;;8.48;2.42;;;31.60;70.00;;;;;;5024048;28;20680;-73
2021/06/23 11:25:24;;;;;;;8.65;2.70;;;31.60;69.90;;;;;;5024907;28;20038;-74
2021/06/23 11:28:08;;;;;;;13.15;3.55;;;31.90;71.30;;;;;;5025611;28;20037;-74
2021/06/23 11:31:06;;;;;;;10.90;3.10;;;32.20;70.20;;;;;;5025846;28;20029;-74
2021/06/23 11:33:38;;;;;;;8.52;2.60;;;32.50;69.90;;;;;;5025778;28;20037;-73
2021/06/23 11:36:10;;;;;;;12.85;3.22;;;32.50;70.50;;;;;;5025328;28;20061;-73
2021/06/23 11:38:37;;;;;;;8.07;2.80;;;32.60;69.50;;;;;;5025082;28;20017;-73
2021/06/23 11:41:05;;;;;;;13.75;3.33;;;32.80;69.60;;;;;;5025385;28;20108;-74
2021/06/23 11:43:31;;;;;;;10.57;2.72;;;32.50;68.30;;;;;;5025221;28;20601;-74
2021/06/23 11:45:57;;;;;;;11.18;3.05;;;32.20;69.60;;;;;;5025694;28;20077;-73
2021/06/23 11:48:26;;;;;;;8.63;3.08;;;32.50;69.00;;;;;;5024295;28;20151;-73
2021/06/23 11:50:53;;;;;;;8.43;2.53;;;32.50;68.70;;;;;;5005430;28;20022;-74
2021/06/23 11:53:20;;;;;;;8.77;2.58;;;32.50;68.60;;;;;;5005428;28;20021;-75
2021/06/23 11:55:48;;;;;;;11.93;3.08;;;32.50;69.10;;;;;;5005514;28;20033;-74
2021/06/23 11:58:15;;;;;;;10.68;3.13;;;32.60;68.80;;;;;;5005551;28;20032;-74
2021/06/23 12:00:42;;;;;;;12.27;2.75;;;32.90;68.50;;;;;;5021434;28;20033;-74
2021/06/23 12:03:10;;;;;;;13.50;2.53;;;32.80;69.10;;;;;;5025310;28;20036;-74
2021/06/23 12:05:37;;;;;;;11.98;2.88;;;33.00;69.00;;;;;;5021762;28;20022;-74
2021/06/23 12:08:03;;;;;;;12.18;2.85;;;33.30;69.60;;;;;;5024584;28;20664;-75
2021/06/23 12:10:31;;;;;;;24.35;4.07;;;33.20;68.00;;;;;;5021673;28;20030;-74
2021/06/23 12:12:58;;;;;;;12.52;2.70;;;33.30;67.20;;;;;;5024505;28;20026;-74
2021/06/23 12:15:25;;;;;;;13.00;2.30;;;33.00;67.80;;;;;;5024822;28;20025;-74
2021/06/23 12:17:54;;;;;;;11.10;2.85;;;32.50;67.10;;;;;;5024746;28;20029;-75
2021/06/23 12:20:21;;;;;;;14.27;2.60;;;32.20;69.70;;;;;;5024709;28;20092;-74
2021/06/23 12:22:55;;;;;;;8.98;2.92;;;31.90;68.80;;;;;;5024711;28;20040;-75
2021/06/23 12:25:23;;;;;;;8.82;3.20;;;31.70;68.60;;;;;;5025262;28;20045;-74
2021/06/23 12:27:49;;;;;;;10.75;3.13;;;31.70;68.80;;;;;;5025712;28;20502;-74
2021/06/23 12:30:14;;;;;;;6.70;2.40;;;31.70;69.10;;;;;;5025069;28;20025;-74
2021/06/23 12:32:40;;;;;;;7.85;2.40;;;31.60;69.30;;;;;;5025034;28;20041;-75
2021/06/23 12:35:07;;;;;;;10.77;3.03;;;31.60;68.80;;;;;;5024434;28;20467;-74
2021/06/23 12:37:34;;;;;;;10.00;2.83;;;31.90;68.80;;;;;;5025220;28;20080;-74
2021/06/23 12:40:00;;;;;;;9.80;2.90;;;31.80;68.40;;;;;;5025232;28;20033;-74
2021/06/23 12:42:26;;;;;;;12.82;3.30;;;32.10;68.50;;;;;;5024245;28;20117;-74
2021/06/23 12:44:52;;;;;;;8.95;2.33;;;32.20;68.50;;;;;;5005596;28;20022;-74
2021/06/23 12:47:18;;;;;;;10.50;2.85;;;32.20;67.80;;;;;;5005540;28;20105;-74
2021/06/23 12:49:43;;;;;;;8.50;2.58;;;32.20;68.40;;;;;;5014793;28;20120;-75
2021/06/23 12:52:09;;;;;;;12.23;2.35;;;32.30;68.30;;;;;;5005518;28;20041;-74
2021/06/23 12:54:35;;;;;;;10.68;3.13;;;32.50;67.20;;;;;;5005428;28;20026;-74
2021/06/23 12:57:01;;;;;;;18.23;2.95;;;32.60;66.90;;;;;;5018516;28;20057;-74
2021/06/23 12:59:30;;;;;;;12.65;2.92;;;32.80;67.20;;;;;;5023823;28;20091;-75
2021/06/23 13:01:57;;;;;;;7.13;2.65;;;32.50;67.50;;;;;;5024769;28;20025;-75
2021/06/23 13:04:24;;;;;;;8.10;3.15;;;32.60;68.30;;;;;;5024639;28;20084;-74
2021/06/23 13:06:50;;;;;;;6.90;2.92;;;32.80;67.90;;;;;;5009923;28;20026;-75